Ten Sleep, WY

1:30 AM MDT on September 20, 2014 (GMT -0600)
Worland Municipal | Change Station
CLOSE
Current Station
Airport
Location: Worland,
Elevation: 4226 ft
Nearby Weather Stations

Elev 4226 ft 43.97 °N, 107.95 °W | Updated 37 minutes ago

Clear
Clear
54 °F
Feels Like 54 °F
N
7
Wind Variable Wind from SSE

Today
High -- | Low -- °F
--% Chance of Precip.
Yesterday
High -- | Low -- °F
Precip. -- in
6:54 AM 7:10 PM
Waning Crescent, 14% visible
Pressure 29.98 in
Visibility 10.0 miles
Clouds Clear
Dew Point 45 °F
Humidity 72%
Rainfall 0.00 in
Snow Depth Not available.
UV 0 out of 12
Pollen 5.40 out of 12
Air Quality Not available.
Flu Activity Not available.
METAR KWRL 200653Z AUTO 16006KT 10SM CLR 12/07 A3007 RMK AO2 SLP150 T01220072 402780122

More Conditions Fewer Conditions

Pressure 29.98 in
Visibility 10.0 miles
Clouds Clear
Dew Point 45 °F
Humidity 72%
Rainfall 0.00 in
Snow Depth Not available.
UV 0 out of 12
Pollen 5.40 out of 12
Air Quality Not available.
Flu Activity Not available.
METAR KWRL 200653Z AUTO 16006KT 10SM CLR 12/07 A3007 RMK AO2 SLP150 T01220072 402780122

More Conditions Fewer Conditions

10-Day Weather Forecast

Almanac

Astronomy

Sep. 20, 2014 Rise Set
Actual Time 6:54 AM MDT 7:10 PM MDT
Civil Twilight 6:25 AM MDT 7:39 PM MDT
Nautical Twilight 5:51 AM MDT 8:13 PM MDT
Astronomical Twilight 5:17 AM MDT 8:48 PM MDT
Moon 3:31 AM MDT 5:20 PM MDT
Length of Visible Light 13h 13m
Length of Day
12h 16m
Tomorrow will be 3m 0s shorter.
Waning Crescent, 14% of the Moon is Illuminated
Today
Waning Crescent
Sep 24
New
Oct 1
First Quarter
Oct 8
Full
Oct 15
Last Quarter

Today's Extremes

State Highs State Lows

Community

WunderPhotos

Upload Photos

1,754,792 photos uploaded!

WunderBlogs® & News

Nearby

Snow Depth

Station Depth Elevation
Cinnabar Park 0 in 9690 ft
Hams Fork 0 in 7840 ft
Base Camp 0 in 7030 ft
Gunsight Pass 0 in 9820 ft
Casper Mountain 0 in 7850 ft

Earthquake Activity

City Distance Mag. Time & Date
No recent earthquake activity has been reported nearby.
Minimum magnitude displayed is 2.5.

Coastal Water Temperatures

Place Temperature
No Stations Reporting

Nearby Weather Stations